sensor_id;sensor_type;location;lat;lon;timestamp;P1;durP1;ratioP1;P2;durP2;ratioP2
13327;SDS011;6733;51.044;3.746;2023-07-22T00:01:10;13.73;;;10.37;;
13327;SDS011;6733;51.044;3.746;2023-07-22T00:03:36;11.83;;;9.57;;
13327;SDS011;6733;51.044;3.746;2023-07-22T00:06:05;14.50;;;10.30;;
13327;SDS011;6733;51.044;3.746;2023-07-22T00:08:33;15.73;;;11.00;;
13327;SDS011;6733;51.044;3.746;2023-07-22T00:11:03;16.27;;;11.13;;
13327;SDS011;6733;51.044;3.746;2023-07-22T00:13:30;13.27;;;10.30;;
13327;SDS011;6733;51.044;3.746;2023-07-22T00:15:57;14.73;;;10.60;;
13327;SDS011;6733;51.044;3.746;2023-07-22T00:18:29;14.00;;;9.83;;
13327;SDS011;6733;51.044;3.746;2023-07-22T00:20:56;15.83;;;11.17;;
13327;SDS011;6733;51.044;3.746;2023-07-22T00:23:22;13.50;;;9.77;;
13327;SDS011;6733;51.044;3.746;2023-07-22T00:25:49;11.13;;;9.43;;
13327;SDS011;6733;51.044;3.746;2023-07-22T00:28:15;11.57;;;10.27;;
13327;SDS011;6733;51.044;3.746;2023-07-22T00:30:42;15.83;;;10.57;;
13327;SDS011;6733;51.044;3.746;2023-07-22T00:33:08;14.03;;;10.97;;
13327;SDS011;6733;51.044;3.746;2023-07-22T00:35:34;11.63;;;10.30;;
13327;SDS011;6733;51.044;3.746;2023-07-22T00:38:01;11.93;;;10.47;;
13327;SDS011;6733;51.044;3.746;2023-07-22T00:40:27;13.43;;;10.70;;
13327;SDS011;6733;51.044;3.746;2023-07-22T00:42:57;13.77;;;10.57;;
13327;SDS011;6733;51.044;3.746;2023-07-22T00:45:24;14.83;;;11.47;;
13327;SDS011;6733;51.044;3.746;2023-07-22T00:47:50;13.60;;;9.87;;
13327;SDS011;6733;51.044;3.746;2023-07-22T00:50:17;13.70;;;10.47;;
13327;SDS011;6733;51.044;3.746;2023-07-22T00:52:44;12.93;;;10.77;;
13327;SDS011;6733;51.044;3.746;2023-07-22T00:55:10;15.97;;;10.87;;
13327;SDS011;6733;51.044;3.746;2023-07-22T00:57:36;13.20;;;10.50;;
13327;SDS011;6733;51.044;3.746;2023-07-22T01:00:04;13.93;;;10.67;;
13327;SDS011;6733;51.044;3.746;2023-07-22T01:02:31;16.83;;;10.73;;
13327;SDS011;6733;51.044;3.746;2023-07-22T01:04:59;12.67;;;10.53;;
13327;SDS011;6733;51.044;3.746;2023-07-22T01:07:25;14.70;;;11.27;;
13327;SDS011;6733;51.044;3.746;2023-07-22T01:09:55;11.33;;;9.93;;
13327;SDS011;6733;51.044;3.746;2023-07-22T01:12:22;14.47;;;10.40;;
13327;SDS011;6733;51.044;3.746;2023-07-22T01:14:48;15.80;;;10.77;;
13327;SDS011;6733;51.044;3.746;2023-07-22T01:17:15;13.33;;;11.03;;
13327;SDS011;6733;51.044;3.746;2023-07-22T01:19:41;13.87;;;10.40;;
13327;SDS011;6733;51.044;3.746;2023-07-22T01:22:09;16.10;;;11.37;;
13327;SDS011;6733;51.044;3.746;2023-07-22T01:24:36;11.73;;;10.40;;
13327;SDS011;6733;51.044;3.746;2023-07-22T01:27:04;13.30;;;11.57;;
13327;SDS011;6733;51.044;3.746;2023-07-22T01:29:34;13.00;;;10.60;;
13327;SDS011;6733;51.044;3.746;2023-07-22T01:32:00;15.27;;;10.83;;
13327;SDS011;6733;51.044;3.746;2023-07-22T01:34:26;15.10;;;10.23;;
13327;SDS011;6733;51.044;3.746;2023-07-22T01:36:53;13.17;;;10.93;;
13327;SDS011;6733;51.044;3.746;2023-07-22T01:39:19;14.20;;;10.77;;
13327;SDS011;6733;51.044;3.746;2023-07-22T01:41:46;13.07;;;10.47;;
13327;SDS011;6733;51.044;3.746;2023-07-22T01:44:13;15.93;;;10.67;;
13327;SDS011;6733;51.044;3.746;2023-07-22T01:46:40;12.87;;;10.90;;
13327;SDS011;6733;51.044;3.746;2023-07-22T01:49:10;14.33;;;9.97;;
13327;SDS011;6733;51.044;3.746;2023-07-22T01:51:38;15.27;;;10.70;;
13327;SDS011;6733;51.044;3.746;2023-07-22T01:54:05;13.20;;;10.83;;
13327;SDS011;6733;51.044;3.746;2023-07-22T01:56:32;14.33;;;10.97;;
13327;SDS011;6733;51.044;3.746;2023-07-22T01:58:58;15.00;;;11.03;;
13327;SDS011;6733;51.044;3.746;2023-07-22T02:01:24;16.23;;;11.43;;
13327;SDS011;6733;51.044;3.746;2023-07-22T02:03:50;17.67;;;11.20;;
13327;SDS011;6733;51.044;3.746;2023-07-22T02:06:16;17.43;;;11.93;;
13327;SDS011;6733;51.044;3.746;2023-07-22T02:08:42;14.70;;;11.00;;
13327;SDS011;6733;51.044;3.746;2023-07-22T02:11:08;15.07;;;11.30;;
13327;SDS011;6733;51.044;3.746;2023-07-22T02:13:35;14.33;;;10.93;;
13327;SDS011;6733;51.044;3.746;2023-07-22T02:16:01;17.77;;;11.57;;
13327;SDS011;6733;51.044;3.746;2023-07-22T02:18:28;17.10;;;12.37;;
13327;SDS011;6733;51.044;3.746;2023-07-22T02:20:55;16.73;;;12.13;;
13327;SDS011;6733;51.044;3.746;2023-07-22T02:23:22;18.53;;;12.37;;
13327;SDS011;6733;51.044;3.746;2023-07-22T02:25:49;19.00;;;12.10;;
13327;SDS011;6733;51.044;3.746;2023-07-22T02:28:16;17.30;;;12.70;;
13327;SDS011;6733;51.044;3.746;2023-07-22T02:30:50;20.47;;;13.07;;
13327;SDS011;6733;51.044;3.746;2023-07-22T02:33:42;15.77;;;12.20;;
13327;SDS011;6733;51.044;3.746;2023-07-22T02:36:33;19.53;;;12.37;;
13327;SDS011;6733;51.044;3.746;2023-07-22T02:39:24;15.63;;;11.70;;
13327;SDS011;6733;51.044;3.746;2023-07-22T02:42:15;16.37;;;12.33;;
13327;SDS011;6733;51.044;3.746;2023-07-22T02:45:07;17.50;;;11.43;;
13327;SDS011;6733;51.044;3.746;2023-07-22T02:48:24;16.37;;;11.80;;
13327;SDS011;6733;51.044;3.746;2023-07-22T02:51:40;16.20;;;11.30;;
13327;SDS011;6733;51.044;3.746;2023-07-22T02:55:17;17.57;;;12.30;;
13327;SDS011;6733;51.044;3.746;2023-07-22T02:58:33;17.13;;;11.20;;
13327;SDS011;6733;51.044;3.746;2023-07-22T03:01:00;16.27;;;12.00;;
13327;SDS011;6733;51.044;3.746;2023-07-22T03:03:26;17.33;;;12.57;;
13327;SDS011;6733;51.044;3.746;2023-07-22T03:05:52;15.17;;;10.60;;
13327;SDS011;6733;51.044;3.746;2023-07-22T03:08:18;17.77;;;12.20;;
13327;SDS011;6733;51.044;3.746;2023-07-22T03:10:45;16.93;;;11.40;;
13327;SDS011;6733;51.044;3.746;2023-07-22T03:13:14;15.63;;;12.07;;
13327;SDS011;6733;51.044;3.746;2023-07-22T03:15:41;16.33;;;12.57;;
13327;SDS011;6733;51.044;3.746;2023-07-22T03:18:07;12.97;;;11.53;;
13327;SDS011;6733;51.044;3.746;2023-07-22T03:20:36;17.10;;;11.03;;
13327;SDS011;6733;51.044;3.746;2023-07-22T03:23:03;14.70;;;11.67;;
13327;SDS011;6733;51.044;3.746;2023-07-22T03:25:30;14.53;;;10.80;;
13327;SDS011;6733;51.044;3.746;2023-07-22T03:27:58;15.57;;;11.23;;
13327;SDS011;6733;51.044;3.746;2023-07-22T03:30:28;18.80;;;12.17;;
13327;SDS011;6733;51.044;3.746;2023-07-22T03:32:55;16.30;;;11.47;;
13327;SDS011;6733;51.044;3.746;2023-07-22T03:35:21;18.53;;;12.20;;
13327;SDS011;6733;51.044;3.746;2023-07-22T03:37:47;18.23;;;12.13;;
13327;SDS011;6733;51.044;3.746;2023-07-22T03:40:13;17.17;;;11.10;;
13327;SDS011;6733;51.044;3.746;2023-07-22T03:42:54;14.20;;;10.93;;
13327;SDS011;6733;51.044;3.746;2023-07-22T03:45:21;17.53;;;11.70;;
13327;SDS011;6733;51.044;3.746;2023-07-22T03:47:51;16.27;;;12.77;;
13327;SDS011;6733;51.044;3.746;2023-07-22T03:50:24;21.10;;;11.87;;
13327;SDS011;6733;51.044;3.746;2023-07-22T03:52:50;16.60;;;12.03;;
13327;SDS011;6733;51.044;3.746;2023-07-22T03:55:17;16.73;;;11.10;;
13327;SDS011;6733;51.044;3.746;2023-07-22T03:57:45;17.10;;;11.37;;
13327;SDS011;6733;51.044;3.746;2023-07-22T04:00:11;14.57;;;10.50;;
13327;SDS011;6733;51.044;3.746;2023-07-22T04:02:38;13.20;;;11.20;;
13327;SDS011;6733;51.044;3.746;2023-07-22T04:05:04;17.90;;;12.13;;
13327;SDS011;6733;51.044;3.746;2023-07-22T04:07:31;16.50;;;12.03;;
13327;SDS011;6733;51.044;3.746;2023-07-22T04:09:57;16.73;;;10.90;;
13327;SDS011;6733;51.044;3.746;2023-07-22T04:12:23;14.80;;;11.03;;
13327;SDS011;6733;51.044;3.746;2023-07-22T04:14:49;15.67;;;11.20;;
13327;SDS011;6733;51.044;3.746;2023-07-22T04:17:16;19.07;;;11.83;;
13327;SDS011;6733;51.044;3.746;2023-07-22T04:19:42;15.83;;;11.57;;
13327;SDS011;6733;51.044;3.746;2023-07-22T04:22:08;13.93;;;11.47;;
13327;SDS011;6733;51.044;3.746;2023-07-22T04:24:35;17.53;;;11.13;;
13327;SDS011;6733;51.044;3.746;2023-07-22T04:27:01;15.97;;;11.43;;
13327;SDS011;6733;51.044;3.746;2023-07-22T04:29:27;15.53;;;10.83;;
13327;SDS011;6733;51.044;3.746;2023-07-22T04:31:57;15.73;;;10.63;;
13327;SDS011;6733;51.044;3.746;2023-07-22T04:34:27;15.00;;;11.07;;
13327;SDS011;6733;51.044;3.746;2023-07-22T04:36:55;14.37;;;9.97;;
13327;SDS011;6733;51.044;3.746;2023-07-22T04:39:21;12.83;;;10.20;;
13327;SDS011;6733;51.044;3.746;2023-07-22T04:41:48;17.23;;;10.40;;
13327;SDS011;6733;51.044;3.746;2023-07-22T04:44:14;13.00;;;10.60;;
13327;SDS011;6733;51.044;3.746;2023-07-22T04:46:41;11.53;;;9.83;;
13327;SDS011;6733;51.044;3.746;2023-07-22T04:49:07;18.50;;;10.47;;
13327;SDS011;6733;51.044;3.746;2023-07-22T04:51:34;14.60;;;11.17;;
13327;SDS011;6733;51.044;3.746;2023-07-22T04:54:00;16.40;;;10.27;;
13327;SDS011;6733;51.044;3.746;2023-07-22T04:56:26;14.40;;;10.43;;
13327;SDS011;6733;51.044;3.746;2023-07-22T04:58:52;12.93;;;10.30;;
13327;SDS011;6733;51.044;3.746;2023-07-22T05:01:18;16.10;;;10.17;;
13327;SDS011;6733;51.044;3.746;2023-07-22T05:03:44;18.97;;;11.57;;
13327;SDS011;6733;51.044;3.746;2023-07-22T05:06:11;16.23;;;10.20;;
13327;SDS011;6733;51.044;3.746;2023-07-22T05:08:37;16.00;;;9.47;;
13327;SDS011;6733;51.044;3.746;2023-07-22T05:11:03;16.87;;;10.57;;
13327;SDS011;6733;51.044;3.746;2023-07-22T05:13:30;16.00;;;9.87;;
13327;SDS011;6733;51.044;3.746;2023-07-22T05:15:56;13.87;;;10.27;;
13327;SDS011;6733;51.044;3.746;2023-07-22T05:18:22;19.77;;;10.67;;
13327;SDS011;6733;51.044;3.746;2023-07-22T05:20:48;16.03;;;10.97;;
13327;SDS011;6733;51.044;3.746;2023-07-22T05:23:14;14.20;;;9.37;;
13327;SDS011;6733;51.044;3.746;2023-07-22T05:25:40;14.93;;;10.23;;
13327;SDS011;6733;51.044;3.746;2023-07-22T05:28:06;16.73;;;9.33;;
13327;SDS011;6733;51.044;3.746;2023-07-22T05:30:32;12.70;;;9.40;;
13327;SDS011;6733;51.044;3.746;2023-07-22T05:32:58;14.10;;;10.00;;
13327;SDS011;6733;51.044;3.746;2023-07-22T05:35:25;18.13;;;9.87;;
13327;SDS011;6733;51.044;3.746;2023-07-22T05:37:51;12.73;;;9.20;;
13327;SDS011;6733;51.044;3.746;2023-07-22T05:40:17;16.20;;;9.97;;
13327;SDS011;6733;51.044;3.746;2023-07-22T05:42:43;16.53;;;9.33;;
13327;SDS011;6733;51.044;3.746;2023-07-22T05:45:09;13.13;;;8.80;;
13327;SDS011;6733;51.044;3.746;2023-07-22T05:47:39;16.77;;;9.30;;
13327;SDS011;6733;51.044;3.746;2023-07-22T05:50:05;13.27;;;7.80;;
13327;SDS011;6733;51.044;3.746;2023-07-22T05:52:32;15.27;;;8.63;;
13327;SDS011;6733;51.044;3.746;2023-07-22T05:54:58;14.73;;;8.70;;
13327;SDS011;6733;51.044;3.746;2023-07-22T05:57:24;12.13;;;8.20;;
13327;SDS011;6733;51.044;3.746;2023-07-22T05:59:50;11.33;;;7.40;;
13327;SDS011;6733;51.044;3.746;2023-07-22T06:02:17;14.43;;;8.10;;
13327;SDS011;6733;51.044;3.746;2023-07-22T06:04:44;11.17;;;8.23;;
13327;SDS011;6733;51.044;3.746;2023-07-22T06:07:10;15.73;;;7.70;;
13327;SDS011;6733;51.044;3.746;2023-07-22T06:09:36;12.97;;;7.77;;
13327;SDS011;6733;51.044;3.746;2023-07-22T06:12:02;19.40;;;7.97;;
13327;SDS011;6733;51.044;3.746;2023-07-22T06:14:29;10.77;;;6.90;;
13327;SDS011;6733;51.044;3.746;2023-07-22T06:16:55;13.67;;;7.43;;
13327;SDS011;6733;51.044;3.746;2023-07-22T06:19:21;12.07;;;7.27;;
13327;SDS011;6733;51.044;3.746;2023-07-22T06:21:49;11.30;;;7.50;;
13327;SDS011;6733;51.044;3.746;2023-07-22T06:24:15;12.27;;;7.60;;
13327;SDS011;6733;51.044;3.746;2023-07-22T06:26:41;12.97;;;7.77;;
13327;SDS011;6733;51.044;3.746;2023-07-22T06:29:07;10.17;;;7.00;;
13327;SDS011;6733;51.044;3.746;2023-07-22T06:31:34;11.97;;;7.23;;
13327;SDS011;6733;51.044;3.746;2023-07-22T06:34:00;13.57;;;7.57;;
13327;SDS011;6733;51.044;3.746;2023-07-22T06:36:26;10.43;;;7.30;;
13327;SDS011;6733;51.044;3.746;2023-07-22T06:38:52;11.00;;;6.80;;
13327;SDS011;6733;51.044;3.746;2023-07-22T06:41:20;13.53;;;7.43;;
13327;SDS011;6733;51.044;3.746;2023-07-22T06:43:46;10.07;;;7.00;;
13327;SDS011;6733;51.044;3.746;2023-07-22T06:46:12;12.30;;;7.57;;
13327;SDS011;6733;51.044;3.746;2023-07-22T06:48:38;10.87;;;7.00;;
13327;SDS011;6733;51.044;3.746;2023-07-22T06:51:05;8.53;;;6.97;;
13327;SDS011;6733;51.044;3.746;2023-07-22T06:53:33;9.90;;;6.87;;
13327;SDS011;6733;51.044;3.746;2023-07-22T06:55:59;10.17;;;6.90;;
13327;SDS011;6733;51.044;3.746;2023-07-22T06:58:25;13.93;;;7.60;;
13327;SDS011;6733;51.044;3.746;2023-07-22T07:00:53;10.90;;;7.20;;
13327;SDS011;6733;51.044;3.746;2023-07-22T07:03:19;11.77;;;6.40;;
13327;SDS011;6733;51.044;3.746;2023-07-22T07:05:53;10.93;;;6.60;;
13327;SDS011;6733;51.044;3.746;2023-07-22T07:08:21;10.43;;;6.20;;
13327;SDS011;6733;51.044;3.746;2023-07-22T07:10:48;8.47;;;6.13;;
13327;SDS011;6733;51.044;3.746;2023-07-22T07:13:14;9.90;;;5.97;;
13327;SDS011;6733;51.044;3.746;2023-07-22T07:15:40;11.83;;;6.20;;
13327;SDS011;6733;51.044;3.746;2023-07-22T07:18:07;13.60;;;6.53;;
13327;SDS011;6733;51.044;3.746;2023-07-22T07:20:33;9.93;;;6.40;;
13327;SDS011;6733;51.044;3.746;2023-07-22T07:22:59;10.63;;;6.00;;
13327;SDS011;6733;51.044;3.746;2023-07-22T07:25:25;10.57;;;6.60;;
13327;SDS011;6733;51.044;3.746;2023-07-22T07:27:51;9.00;;;5.73;;
13327;SDS011;6733;51.044;3.746;2023-07-22T07:30:17;9.87;;;6.23;;
13327;SDS011;6733;51.044;3.746;2023-07-22T07:32:43;9.37;;;5.93;;
13327;SDS011;6733;51.044;3.746;2023-07-22T07:35:09;10.00;;;6.47;;
13327;SDS011;6733;51.044;3.746;2023-07-22T07:37:36;10.00;;;5.57;;
13327;SDS011;6733;51.044;3.746;2023-07-22T07:40:02;10.40;;;6.83;;
13327;SDS011;6733;51.044;3.746;2023-07-22T07:42:29;12.47;;;6.47;;
13327;SDS011;6733;51.044;3.746;2023-07-22T07:44:55;7.30;;;5.80;;
13327;SDS011;6733;51.044;3.746;2023-07-22T07:47:22;13.03;;;7.07;;
13327;SDS011;6733;51.044;3.746;2023-07-22T07:49:48;11.90;;;6.17;;
13327;SDS011;6733;51.044;3.746;2023-07-22T07:52:14;12.53;;;6.33;;
13327;SDS011;6733;51.044;3.746;2023-07-22T07:54:40;7.70;;;5.80;;
13327;SDS011;6733;51.044;3.746;2023-07-22T07:57:06;8.77;;;6.03;;
13327;SDS011;6733;51.044;3.746;2023-07-22T07:59:32;9.23;;;5.83;;
13327;SDS011;6733;51.044;3.746;2023-07-22T08:01:58;10.53;;;6.50;;
13327;SDS011;6733;51.044;3.746;2023-07-22T08:04:25;10.63;;;5.90;;
13327;SDS011;6733;51.044;3.746;2023-07-22T08:06:51;12.07;;;6.23;;
13327;SDS011;6733;51.044;3.746;2023-07-22T08:09:17;9.57;;;5.77;;
13327;SDS011;6733;51.044;3.746;2023-07-22T08:11:45;8.07;;;5.93;;
13327;SDS011;6733;51.044;3.746;2023-07-22T08:14:11;8.53;;;5.57;;
13327;SDS011;6733;51.044;3.746;2023-07-22T08:16:37;9.27;;;5.93;;
13327;SDS011;6733;51.044;3.746;2023-07-22T08:19:03;11.43;;;5.70;;
13327;SDS011;6733;51.044;3.746;2023-07-22T08:21:30;9.17;;;5.83;;
13327;SDS011;6733;51.044;3.746;2023-07-22T08:23:56;9.83;;;5.53;;
13327;SDS011;6733;51.044;3.746;2023-07-22T08:26:22;8.67;;;5.30;;
13327;SDS011;6733;51.044;3.746;2023-07-22T08:28:49;10.80;;;5.57;;
13327;SDS011;6733;51.044;3.746;2023-07-22T08:31:15;9.47;;;4.93;;
13327;SDS011;6733;51.044;3.746;2023-07-22T08:33:41;7.70;;;5.10;;
13327;SDS011;6733;51.044;3.746;2023-07-22T08:36:08;8.90;;;5.00;;
13327;SDS011;6733;51.044;3.746;2023-07-22T08:38:34;10.00;;;4.70;;
13327;SDS011;6733;51.044;3.746;2023-07-22T08:41:00;7.67;;;4.77;;
13327;SDS011;6733;51.044;3.746;2023-07-22T08:43:27;13.47;;;4.70;;
13327;SDS011;6733;51.044;3.746;2023-07-22T08:45:54;7.57;;;4.67;;
13327;SDS011;6733;51.044;3.746;2023-07-22T08:48:21;7.67;;;4.80;;
13327;SDS011;6733;51.044;3.746;2023-07-22T08:53:19;11.40;;;4.67;;
13327;SDS011;6733;51.044;3.746;2023-07-22T08:55:46;7.27;;;4.57;;
13327;SDS011;6733;51.044;3.746;2023-07-22T08:58:13;7.30;;;4.27;;
13327;SDS011;6733;51.044;3.746;2023-07-22T09:00:39;7.20;;;4.87;;
13327;SDS011;6733;51.044;3.746;2023-07-22T09:03:06;4.80;;;3.90;;
13327;SDS011;6733;51.044;3.746;2023-07-22T09:05:33;6.43;;;3.80;;
13327;SDS011;6733;51.044;3.746;2023-07-22T09:08:05;5.27;;;3.97;;
13327;SDS011;6733;51.044;3.746;2023-07-22T09:10:33;9.70;;;4.40;;
13327;SDS011;6733;51.044;3.746;2023-07-22T09:13:00;5.80;;;4.00;;
13327;SDS011;6733;51.044;3.746;2023-07-22T09:15:27;7.77;;;3.60;;
13327;SDS011;6733;51.044;3.746;2023-07-22T09:17:54;5.57;;;3.80;;
13327;SDS011;6733;51.044;3.746;2023-07-22T09:20:20;7.27;;;3.83;;
13327;SDS011;6733;51.044;3.746;2023-07-22T09:22:49;5.70;;;3.57;;
13327;SDS011;6733;51.044;3.746;2023-07-22T09:25:20;4.73;;;3.60;;
13327;SDS011;6733;51.044;3.746;2023-07-22T09:27:51;5.73;;;3.57;;
13327;SDS011;6733;51.044;3.746;2023-07-22T09:32:52;4.83;;;3.23;;
13327;SDS011;6733;51.044;3.746;2023-07-22T09:35:20;4.93;;;3.30;;
13327;SDS011;6733;51.044;3.746;2023-07-22T09:37:47;4.93;;;3.10;;
13327;SDS011;6733;51.044;3.746;2023-07-22T09:40:14;5.07;;;2.90;;
13327;SDS011;6733;51.044;3.746;2023-07-22T09:42:45;4.10;;;3.03;;
13327;SDS011;6733;51.044;3.746;2023-07-22T09:45:12;6.57;;;2.60;;
13327;SDS011;6733;51.044;3.746;2023-07-22T09:47:42;5.17;;;3.00;;
13327;SDS011;6733;51.044;3.746;2023-07-22T09:50:10;3.83;;;2.90;;
13327;SDS011;6733;51.044;3.746;2023-07-22T09:52:42;3.43;;;2.97;;
13327;SDS011;6733;51.044;3.746;2023-07-22T09:55:19;6.23;;;3.10;;
13327;SDS011;6733;51.044;3.746;2023-07-22T09:57:55;4.03;;;2.70;;
13327;SDS011;6733;51.044;3.746;2023-07-22T10:00:24;2.77;;;2.30;;
13327;SDS011;6733;51.044;3.746;2023-07-22T10:02:53;4.67;;;2.60;;
13327;SDS011;6733;51.044;3.746;2023-07-22T10:05:22;3.07;;;2.50;;
13327;SDS011;6733;51.044;3.746;2023-07-22T10:07:50;2.70;;;2.20;;
13327;SDS011;6733;51.044;3.746;2023-07-22T10:10:19;3.20;;;2.17;;
13327;SDS011;6733;51.044;3.746;2023-07-22T10:12:48;3.83;;;1.93;;
13327;SDS011;6733;51.044;3.746;2023-07-22T10:15:14;4.57;;;2.20;;
13327;SDS011;6733;51.044;3.746;2023-07-22T10:17:43;3.80;;;2.27;;
13327;SDS011;6733;51.044;3.746;2023-07-22T10:20:11;4.10;;;1.93;;
13327;SDS011;6733;51.044;3.746;2023-07-22T10:22:42;2.53;;;2.10;;
13327;SDS011;6733;51.044;3.746;2023-07-22T10:25:11;4.13;;;2.00;;
13327;SDS011;6733;51.044;3.746;2023-07-22T10:27:41;2.27;;;2.00;;
13327;SDS011;6733;51.044;3.746;2023-07-22T10:30:09;3.77;;;2.00;;
13327;SDS011;6733;51.044;3.746;2023-07-22T10:32:44;2.20;;;1.90;;
13327;SDS011;6733;51.044;3.746;2023-07-22T10:35:16;2.60;;;2.20;;
13327;SDS011;6733;51.044;3.746;2023-07-22T10:37:45;3.07;;;2.07;;
13327;SDS011;6733;51.044;3.746;2023-07-22T10:42:53;2.67;;;1.80;;
13327;SDS011;6733;51.044;3.746;2023-07-22T10:45:28;4.85;;;1.88;;
13327;SDS011;6733;51.044;3.746;2023-07-22T10:48:05;3.20;;;2.00;;
13327;SDS011;6733;51.044;3.746;2023-07-22T10:50:41;3.40;;;2.20;;
13327;SDS011;6733;51.044;3.746;2023-07-22T10:53:13;2.75;;;2.00;;
13327;SDS011;6733;51.044;3.746;2023-07-22T11:14:25;3.25;;;2.00;;
13327;SDS011;6733;51.044;3.746;2023-07-22T11:16:52;2.17;;;1.90;;
13327;SDS011;6733;51.044;3.746;2023-07-22T11:19:21;3.20;;;1.90;;
13327;SDS011;6733;51.044;3.746;2023-07-22T11:21:49;3.50;;;2.30;;
13327;SDS011;6733;51.044;3.746;2023-07-22T11:24:16;4.38;;;2.40;;
13327;SDS011;6733;51.044;3.746;2023-07-22T11:26:44;3.15;;;2.20;;
13327;SDS011;6733;51.044;3.746;2023-07-22T11:29:12;2.00;;;1.70;;
13327;SDS011;6733;51.044;3.746;2023-07-22T11:31:40;4.53;;;2.33;;
13327;SDS011;6733;51.044;3.746;2023-07-22T11:34:12;3.72;;;2.15;;
13327;SDS011;6733;51.044;3.746;2023-07-22T11:36:40;3.40;;;2.13;;
13327;SDS011;6733;51.044;3.746;2023-07-22T11:39:08;3.20;;;1.88;;
13327;SDS011;6733;51.044;3.746;2023-07-22T11:41:35;4.10;;;3.00;;
13327;SDS011;6733;51.044;3.746;2023-07-22T11:44:03;3.80;;;2.30;;
13327;SDS011;6733;51.044;3.746;2023-07-22T11:49:21;6.37;;;3.87;;
13327;SDS011;6733;51.044;3.746;2023-07-22T11:52:02;3.67;;;2.37;;
13327;SDS011;6733;51.044;3.746;2023-07-22T11:54:37;6.00;;;2.93;;
13327;SDS011;6733;51.044;3.746;2023-07-22T11:57:14;4.73;;;3.00;;
13327;SDS011;6733;51.044;3.746;2023-07-22T11:59:45;4.60;;;3.77;;
13327;SDS011;6733;51.044;3.746;2023-07-22T12:02:19;5.90;;;3.80;;
13327;SDS011;6733;51.044;3.746;2023-07-22T12:04:51;4.20;;;3.80;;
13327;SDS011;6733;51.044;3.746;2023-07-22T12:07:28;4.07;;;2.90;;
13327;SDS011;6733;51.044;3.746;2023-07-22T12:09:55;4.10;;;2.33;;
13327;SDS011;6733;51.044;3.746;2023-07-22T12:15:19;5.13;;;3.17;;
13327;SDS011;6733;51.044;3.746;2023-07-22T12:17:58;7.27;;;4.47;;
13327;SDS011;6733;51.044;3.746;2023-07-22T12:20:29;6.67;;;4.90;;
13327;SDS011;6733;51.044;3.746;2023-07-22T12:22:59;5.97;;;4.47;;
13327;SDS011;6733;51.044;3.746;2023-07-22T12:25:25;5.13;;;3.50;;
13327;SDS011;6733;51.044;3.746;2023-07-22T12:27:52;3.63;;;2.10;;
13327;SDS011;6733;51.044;3.746;2023-07-22T12:30:18;3.97;;;3.13;;
13327;SDS011;6733;51.044;3.746;2023-07-22T12:32:45;7.37;;;4.63;;
13327;SDS011;6733;51.044;3.746;2023-07-22T12:35:12;2.93;;;2.47;;
13327;SDS011;6733;51.044;3.746;2023-07-22T12:37:39;4.57;;;2.70;;
13327;SDS011;6733;51.044;3.746;2023-07-22T12:40:05;3.53;;;2.20;;
13327;SDS011;6733;51.044;3.746;2023-07-22T12:42:34;3.87;;;2.90;;
13327;SDS011;6733;51.044;3.746;2023-07-22T12:45:01;3.27;;;2.30;;
13327;SDS011;6733;51.044;3.746;2023-07-22T12:47:29;3.03;;;2.10;;
13327;SDS011;6733;51.044;3.746;2023-07-22T12:49:55;3.80;;;2.60;;
13327;SDS011;6733;51.044;3.746;2023-07-22T12:52:21;6.90;;;2.50;;
13327;SDS011;6733;51.044;3.746;2023-07-22T12:54:47;3.97;;;2.53;;
13327;SDS011;6733;51.044;3.746;2023-07-22T12:57:13;3.53;;;2.13;;
13327;SDS011;6733;51.044;3.746;2023-07-22T12:59:39;4.00;;;2.13;;
13327;SDS011;6733;51.044;3.746;2023-07-22T13:02:06;6.13;;;2.70;;
13327;SDS011;6733;51.044;3.746;2023-07-22T13:04:32;2.70;;;2.40;;
13327;SDS011;6733;51.044;3.746;2023-07-22T13:06:58;4.30;;;2.50;;
13327;SDS011;6733;51.044;3.746;2023-07-22T13:09:24;3.40;;;2.67;;
13327;SDS011;6733;51.044;3.746;2023-07-22T13:11:51;3.57;;;2.90;;
13327;SDS011;6733;51.044;3.746;2023-07-22T13:14:17;2.50;;;2.30;;
13327;SDS011;6733;51.044;3.746;2023-07-22T13:16:44;3.27;;;2.70;;
13327;SDS011;6733;51.044;3.746;2023-07-22T13:19:10;3.87;;;2.10;;
13327;SDS011;6733;51.044;3.746;2023-07-22T13:21:36;4.70;;;2.17;;
13327;SDS011;6733;51.044;3.746;2023-07-22T13:24:02;4.13;;;2.30;;
13327;SDS011;6733;51.044;3.746;2023-07-22T13:26:29;3.20;;;2.03;;
13327;SDS011;6733;51.044;3.746;2023-07-22T13:28:55;5.93;;;2.57;;
13327;SDS011;6733;51.044;3.746;2023-07-22T13:31:21;3.10;;;2.40;;
13327;SDS011;6733;51.044;3.746;2023-07-22T13:33:47;3.70;;;2.63;;
13327;SDS011;6733;51.044;3.746;2023-07-22T13:36:13;4.13;;;2.10;;
13327;SDS011;6733;51.044;3.746;2023-07-22T13:38:39;4.47;;;2.00;;
13327;SDS011;6733;51.044;3.746;2023-07-22T13:41:05;3.60;;;2.20;;
13327;SDS011;6733;51.044;3.746;2023-07-22T13:43:31;4.00;;;2.30;;
13327;SDS011;6733;51.044;3.746;2023-07-22T13:45:58;4.40;;;2.30;;
13327;SDS011;6733;51.044;3.746;2023-07-22T13:48:24;4.00;;;2.17;;
13327;SDS011;6733;51.044;3.746;2023-07-22T13:50:50;4.77;;;2.63;;
13327;SDS011;6733;51.044;3.746;2023-07-22T13:53:16;4.57;;;2.00;;
13327;SDS011;6733;51.044;3.746;2023-07-22T13:55:42;4.47;;;2.50;;
13327;SDS011;6733;51.044;3.746;2023-07-22T13:58:08;5.00;;;2.63;;
13327;SDS011;6733;51.044;3.746;2023-07-22T14:00:34;4.37;;;2.23;;
13327;SDS011;6733;51.044;3.746;2023-07-22T14:03:00;3.43;;;2.00;;
13327;SDS011;6733;51.044;3.746;2023-07-22T14:05:27;2.53;;;2.27;;
13327;SDS011;6733;51.044;3.746;2023-07-22T14:07:53;3.57;;;1.97;;
13327;SDS011;6733;51.044;3.746;2023-07-22T14:10:19;4.20;;;2.47;;
13327;SDS011;6733;51.044;3.746;2023-07-22T14:12:45;4.60;;;2.80;;
13327;SDS011;6733;51.044;3.746;2023-07-22T14:15:12;4.60;;;2.83;;
13327;SDS011;6733;51.044;3.746;2023-07-22T14:17:38;2.70;;;2.30;;
13327;SDS011;6733;51.044;3.746;2023-07-22T14:20:05;3.30;;;2.63;;
13327;SDS011;6733;51.044;3.746;2023-07-22T14:22:32;3.80;;;2.67;;
13327;SDS011;6733;51.044;3.746;2023-07-22T14:24:58;4.43;;;2.60;;
13327;SDS011;6733;51.044;3.746;2023-07-22T14:27:25;4.13;;;2.57;;
13327;SDS011;6733;51.044;3.746;2023-07-22T14:29:51;3.87;;;2.40;;
13327;SDS011;6733;51.044;3.746;2023-07-22T14:32:17;3.87;;;2.57;;
13327;SDS011;6733;51.044;3.746;2023-07-22T14:34:43;4.23;;;2.53;;
13327;SDS011;6733;51.044;3.746;2023-07-22T14:37:09;3.17;;;2.87;;
13327;SDS011;6733;51.044;3.746;2023-07-22T14:39:35;3.93;;;2.77;;
13327;SDS011;6733;51.044;3.746;2023-07-22T14:42:01;3.87;;;3.00;;
13327;SDS011;6733;51.044;3.746;2023-07-22T14:44:28;4.50;;;2.80;;
13327;SDS011;6733;51.044;3.746;2023-07-22T14:46:54;4.43;;;2.50;;
13327;SDS011;6733;51.044;3.746;2023-07-22T14:49:20;3.53;;;2.40;;
13327;SDS011;6733;51.044;3.746;2023-07-22T14:51:46;3.47;;;2.50;;
13327;SDS011;6733;51.044;3.746;2023-07-22T14:54:12;3.83;;;2.57;;
13327;SDS011;6733;51.044;3.746;2023-07-22T14:56:38;5.60;;;2.70;;
13327;SDS011;6733;51.044;3.746;2023-07-22T14:59:06;4.63;;;2.50;;
13327;SDS011;6733;51.044;3.746;2023-07-22T15:01:38;4.63;;;2.43;;
13327;SDS011;6733;51.044;3.746;2023-07-22T15:04:05;3.83;;;2.57;;
13327;SDS011;6733;51.044;3.746;2023-07-22T15:06:31;4.60;;;2.50;;
13327;SDS011;6733;51.044;3.746;2023-07-22T15:08:58;3.37;;;2.47;;
13327;SDS011;6733;51.044;3.746;2023-07-22T15:11:24;3.83;;;2.33;;
13327;SDS011;6733;51.044;3.746;2023-07-22T15:13:50;4.80;;;2.73;;
13327;SDS011;6733;51.044;3.746;2023-07-22T15:16:17;4.87;;;2.67;;
13327;SDS011;6733;51.044;3.746;2023-07-22T15:18:43;4.27;;;2.70;;
13327;SDS011;6733;51.044;3.746;2023-07-22T15:21:09;2.93;;;2.60;;
13327;SDS011;6733;51.044;3.746;2023-07-22T15:23:35;4.63;;;2.83;;
13327;SDS011;6733;51.044;3.746;2023-07-22T15:26:01;4.00;;;2.73;;
13327;SDS011;6733;51.044;3.746;2023-07-22T15:28:27;3.87;;;2.70;;